Time;durP1;ratioP1;P1;durP2;ratioP2;P2;SDS_P1;SDS_P2;PMS_P1;PMS_P2;Temp;Humidity;BMP_temperature;BMP_pressure;BME280_temperature;BME280_humidity;BME280_pressure;Samples;Min_cycle;Max_cycle;Signal;HPM_P1;HPM_P2
2023/02/18 00:01:03;;;;;;;12.13;1.60;;;6.60;99.90;;;;;;5013264;28;20926;-84
2023/02/18 00:03:29;;;;;;;17.70;2.40;;;6.50;99.90;;;;;;5013205;28;20173;-84
2023/02/18 00:05:55;;;;;;;13.53;1.73;;;6.60;99.90;;;;;;5013069;28;20406;-84
2023/02/18 00:08:21;;;;;;;26.93;2.10;;;6.50;99.90;;;;;;5012799;28;20462;-85
2023/02/18 00:10:47;;;;;;;9.63;0.90;;;6.60;99.90;;;;;;5013190;28;20671;-84
2023/02/18 00:13:12;;;;;;;8.20;1.80;;;6.60;99.90;;;;;;5011910;28;20193;-86
2023/02/18 00:15:41;;;;;;;11.83;1.57;;;6.60;99.90;;;;;;5012945;28;20827;-82
2023/02/18 00:18:06;;;;;;;15.53;1.80;;;6.50;99.90;;;;;;5012999;28;20193;-85
2023/02/18 00:20:34;;;;;;;9.43;1.90;;;6.60;99.90;;;;;;5011837;28;20427;-86
2023/02/18 00:22:59;;;;;;;12.60;1.57;;;6.70;99.90;;;;;;5013285;28;20264;-85
2023/02/18 00:25:25;;;;;;;11.80;2.73;;;6.60;99.90;;;;;;5017245;28;20456;-85
2023/02/18 00:27:50;;;;;;;13.30;1.87;;;6.60;99.90;;;;;;5017033;28;20169;-84
2023/02/18 00:30:16;;;;;;;14.23;2.60;;;6.60;99.90;;;;;;5016958;28;20528;-85
2023/02/18 00:32:42;;;;;;;13.60;2.53;;;6.50;99.90;;;;;;5016845;28;20306;-85
2023/02/18 00:35:08;;;;;;;6.70;1.10;;;6.50;99.90;;;;;;5016402;28;20215;-85
2023/02/18 00:37:33;;;;;;;11.10;1.47;;;6.50;99.90;;;;;;5015250;28;20188;-86
2023/02/18 00:39:59;;;;;;;10.37;1.20;;;6.50;99.90;;;;;;5016842;28;20414;-87
2023/02/18 00:42:24;;;;;;;7.93;0.77;;;6.50;99.90;;;;;;4974617;28;20761;-89
2023/02/18 00:44:50;;;;;;;5.23;0.70;;;6.50;99.90;;;;;;5016815;28;20236;-86
2023/02/18 00:47:15;;;;;;;8.33;1.90;;;6.40;99.90;;;;;;5015555;28;20278;-86
2023/02/18 00:49:41;;;;;;;19.97;1.97;;;6.40;99.90;;;;;;5007845;28;20188;-86
2023/02/18 00:52:06;;;;;;;3.63;0.93;;;6.30;99.90;;;;;;4996761;28;20364;-84
2023/02/18 00:54:32;;;;;;;14.37;3.03;;;6.30;99.90;;;;;;4996898;28;20185;-85
2023/02/18 00:56:57;;;;;;;8.60;1.47;;;6.30;99.90;;;;;;5019722;28;20180;-83
2023/02/18 00:59:23;;;;;;;9.83;1.30;;;6.30;99.90;;;;;;5016828;28;20671;-84
2023/02/18 01:01:48;;;;;;;19.80;1.80;;;6.30;99.90;;;;;;5017894;28;20216;-83
2023/02/18 01:04:14;;;;;;;11.33;2.10;;;6.30;99.90;;;;;;5015997;28;20167;-84
2023/02/18 01:06:39;;;;;;;18.17;1.97;;;6.30;99.90;;;;;;5015830;28;20179;-84
2023/02/18 01:09:05;;;;;;;11.60;2.10;;;6.30;99.90;;;;;;5015905;28;20556;-84
2023/02/18 01:11:31;;;;;;;8.67;1.27;;;6.30;99.90;;;;;;5014676;28;20185;-84
2023/02/18 01:13:56;;;;;;;9.27;1.37;;;6.30;99.90;;;;;;5015867;28;20186;-84
2023/02/18 01:16:23;;;;;;;8.30;1.30;;;6.30;99.90;;;;;;5014584;28;20310;-84
2023/02/18 01:18:48;;;;;;;8.37;1.67;;;6.30;99.90;;;;;;5015787;28;20175;-84
2023/02/18 01:21:14;;;;;;;11.43;1.60;;;6.40;99.90;;;;;;5015323;28;20419;-84
2023/02/18 01:23:40;;;;;;;8.30;1.23;;;6.30;99.90;;;;;;5015553;28;20177;-84
2023/02/18 01:26:06;;;;;;;11.87;1.27;;;6.30;99.90;;;;;;5015776;28;20581;-84
2023/02/18 01:28:32;;;;;;;20.60;2.73;;;6.20;99.90;;;;;;5014441;28;20420;-84
2023/02/18 01:31:02;;;;;;;15.93;1.87;;;6.30;99.90;;;;;;5015551;28;20812;-84
2023/02/18 01:33:28;;;;;;;9.00;1.17;;;6.20;99.90;;;;;;5015318;28;20619;-84
2023/02/18 01:35:54;;;;;;;17.63;2.50;;;6.20;99.90;;;;;;5013885;28;20513;-84
2023/02/18 01:38:19;;;;;;;16.03;1.73;;;6.10;99.90;;;;;;5014840;28;20408;-84
2023/02/18 01:40:47;;;;;;;10.10;0.63;;;6.20;99.90;;;;;;5013871;28;20236;-84
2023/02/18 01:43:14;;;;;;;8.53;0.67;;;6.20;99.90;;;;;;5014041;28;20687;-84
2023/02/18 01:46:10;;;;;;;10.77;1.80;;;6.10;99.90;;;;;;5013628;28;21050;-83
2023/02/18 01:48:43;;;;;;;13.43;2.10;;;6.10;99.90;;;;;;4997233;28;20443;-84
2023/02/18 01:51:29;;;;;;;17.80;1.37;;;6.30;99.90;;;;;;5000689;28;20495;-83
2023/02/18 01:54:15;;;;;;;9.30;0.60;;;6.00;99.90;;;;;;4994030;28;20422;-84
2023/02/18 01:56:49;;;;;;;4.17;0.80;;;6.00;99.90;;;;;;4994141;28;20475;-83
2023/02/18 01:59:24;;;;;;;11.67;1.33;;;6.00;99.90;;;;;;4995706;28;20921;-84
2023/02/18 02:01:50;;;;;;;8.60;0.70;;;6.00;99.90;;;;;;4995315;28;20429;-83
2023/02/18 02:04:16;;;;;;;8.93;1.80;;;5.90;99.90;;;;;;5010416;28;20418;-84
2023/02/18 02:06:43;;;;;;;7.33;1.80;;;5.90;99.90;;;;;;4995089;28;20419;-85
2023/02/18 02:09:12;;;;;;;9.27;1.37;;;5.90;99.90;;;;;;4995238;28;20506;-86
2023/02/18 02:12:08;;;;;;;6.30;0.63;;;5.90;99.90;;;;;;4995212;28;20432;-86
2023/02/18 02:14:48;;;;;;;8.70;1.27;;;6.00;99.90;;;;;;4995180;28;20416;-85
2023/02/18 02:17:27;;;;;;;5.30;0.87;;;6.00;99.90;;;;;;4995216;28;20903;-84
2023/02/18 02:20:30;;;;;;;7.30;1.20;;;6.00;99.90;;;;;;4995117;28;20769;-85
2023/02/18 02:23:34;;;;;;;5.43;0.63;;;6.00;99.90;;;;;;4994685;28;20420;-84
2023/02/18 02:26:35;;;;;;;4.57;0.70;;;6.10;99.90;;;;;;4961820;28;20418;-83
2023/02/18 02:29:19;;;;;;;12.07;1.03;;;6.10;99.90;;;;;;4994840;28;20470;-84
2023/02/18 02:31:59;;;;;;;16.13;1.03;;;6.10;99.90;;;;;;4994705;28;20456;-84
2023/02/18 02:35:02;;;;;;;8.87;0.40;;;6.10;99.90;;;;;;4994785;28;20412;-83
2023/02/18 02:37:41;;;;;;;14.07;1.60;;;6.20;99.90;;;;;;4994503;28;20436;-85
2023/02/18 02:40:06;;;;;;;7.27;0.33;;;6.20;99.90;;;;;;5010058;28;20451;-84
2023/02/18 02:42:46;;;;;;;11.57;1.70;;;6.20;99.90;;;;;;4961150;28;20475;-84
2023/02/18 02:45:29;;;;;;;10.93;1.50;;;6.20;99.90;;;;;;5014032;28;20583;-84
2023/02/18 02:47:59;;;;;;;10.40;2.40;;;6.20;99.90;;;;;;5012956;28;20437;-84
2023/02/18 02:50:39;;;;;;;15.83;1.80;;;6.20;99.90;;;;;;5014449;28;20846;-85
2023/02/18 02:53:26;;;;;;;10.90;1.17;;;6.20;99.90;;;;;;5014067;28;20751;-84
2023/02/18 02:55:55;;;;;;;7.43;1.43;;;6.20;99.90;;;;;;5014002;28;20770;-84
2023/02/18 02:58:21;;;;;;;4.87;0.90;;;6.20;99.90;;;;;;5014060;28;20491;-84
2023/02/18 03:00:58;;;;;;;7.80;1.20;;;6.30;99.90;;;;;;5014226;28;20423;-85
2023/02/18 03:03:33;;;;;;;9.37;1.23;;;6.30;99.90;;;;;;5014110;28;20417;-84
2023/02/18 03:06:22;;;;;;;16.00;2.50;;;6.40;99.90;;;;;;5013808;28;20838;-84
2023/02/18 03:09:08;;;;;;;10.00;0.63;;;6.40;99.90;;;;;;5012614;28;20939;-84
2023/02/18 03:11:46;;;;;;;21.40;1.33;;;6.40;99.90;;;;;;5013824;28;20421;-83
2023/02/18 03:14:28;;;;;;;14.47;1.53;;;6.40;99.90;;;;;;5013960;28;20410;-83
2023/02/18 03:17:23;;;;;;;7.80;0.53;;;6.40;99.90;;;;;;5013786;28;20914;-83
2023/02/18 03:19:57;;;;;;;14.20;2.27;;;6.40;99.90;;;;;;5009616;28;20420;-84
2023/02/18 03:22:34;;;;;;;4.50;1.10;;;6.40;99.90;;;;;;5013454;28;20460;-85
2023/02/18 03:25:01;;;;;;;10.37;1.40;;;6.40;99.90;;;;;;5013884;28;20424;-85
2023/02/18 03:27:39;;;;;;;11.50;0.97;;;6.40;99.90;;;;;;5013563;28;20462;-85
2023/02/18 03:30:39;;;;;;;25.20;1.80;;;6.40;99.90;;;;;;5013628;28;20920;-82
2023/02/18 03:33:09;;;;;;;4.60;0.63;;;6.40;99.90;;;;;;5013596;28;20994;-84
2023/02/18 03:35:38;;;;;;;4.87;0.80;;;6.40;99.90;;;;;;5013382;28;20470;-86
2023/02/18 03:38:38;;;;;;;5.03;0.40;;;6.40;99.90;;;;;;5013672;28;20481;-85
2023/02/18 03:41:04;;;;;;;7.00;1.03;;;6.50;99.90;;;;;;5013691;28;20396;-86
2023/02/18 03:43:30;;;;;;;6.23;1.17;;;6.50;99.90;;;;;;5012536;28;20420;-86
2023/02/18 03:45:56;;;;;;;5.47;0.50;;;6.50;99.90;;;;;;5013302;28;20477;-87
2023/02/18 03:48:21;;;;;;;10.97;1.20;;;6.50;99.90;;;;;;5012352;28;20180;-86
2023/02/18 03:50:50;;;;;;;7.70;1.40;;;6.50;99.90;;;;;;5011926;28;20172;-84
2023/02/18 03:53:19;;;;;;;7.13;0.97;;;6.50;99.90;;;;;;5013495;28;20515;-86
2023/02/18 03:55:44;;;;;;;6.23;0.60;;;6.60;99.90;;;;;;5013369;28;20517;-87
2023/02/18 03:58:12;;;;;;;3.37;0.50;;;6.70;99.90;;;;;;5012276;28;20795;-86
2023/02/18 04:00:38;;;;;;;3.80;0.77;;;6.70;99.90;;;;;;5011966;28;20181;-84
2023/02/18 04:03:03;;;;;;;6.97;1.07;;;6.60;99.90;;;;;;5012998;28;20781;-85
2023/02/18 04:05:29;;;;;;;5.63;0.50;;;6.70;99.90;;;;;;5011848;28;20262;-83
2023/02/18 04:07:54;;;;;;;5.47;0.83;;;6.70;99.90;;;;;;5011606;28;20185;-84
2023/02/18 04:10:21;;;;;;;7.90;0.90;;;6.70;99.90;;;;;;5009647;28;20643;-83
2023/02/18 04:12:47;;;;;;;12.00;0.57;;;6.70;99.90;;;;;;4978109;28;20231;-86
2023/02/18 04:15:12;;;;;;;4.70;0.30;;;6.70;99.90;;;;;;5013133;28;20464;-85
2023/02/18 04:17:38;;;;;;;3.17;0.40;;;6.60;99.90;;;;;;5011753;28;20217;-85
2023/02/18 04:20:04;;;;;;;9.33;2.20;;;6.60;99.90;;;;;;5011855;28;20235;-85
2023/02/18 04:22:30;;;;;;;4.97;0.67;;;6.60;99.90;;;;;;5012819;28;20176;-85
2023/02/18 04:24:55;;;;;;;1.67;0.37;;;6.60;99.90;;;;;;5011867;28;20818;-85
2023/02/18 04:27:21;;;;;;;4.50;1.13;;;6.60;99.90;;;;;;5013077;28;20604;-84
2023/02/18 04:29:46;;;;;;;5.30;0.80;;;6.60;99.90;;;;;;5011783;28;20181;-86
2023/02/18 04:32:12;;;;;;;3.83;0.50;;;6.60;99.90;;;;;;5013065;28;20260;-86
2023/02/18 04:34:37;;;;;;;3.80;0.50;;;6.50;99.90;;;;;;5013012;28;20172;-84
2023/02/18 04:37:03;;;;;;;12.03;1.50;;;6.50;99.90;;;;;;5012602;28;20635;-84
2023/02/18 04:39:28;;;;;;;4.17;0.90;;;6.40;99.90;;;;;;5012952;28;20251;-84
2023/02/18 04:41:56;;;;;;;7.53;1.03;;;6.40;99.90;;;;;;5012835;28;20189;-85
2023/02/18 04:44:22;;;;;;;6.47;0.70;;;6.40;99.90;;;;;;5012780;28;20259;-86
2023/02/18 04:46:47;;;;;;;6.43;1.13;;;6.30;99.90;;;;;;5012931;28;20450;-84
2023/02/18 04:49:13;;;;;;;8.00;1.40;;;6.40;99.90;;;;;;5012835;28;20227;-84
2023/02/18 04:51:38;;;;;;;4.90;0.47;;;6.30;99.90;;;;;;5012376;28;20234;-84
2023/02/18 04:54:04;;;;;;;3.90;0.20;;;6.30;99.90;;;;;;5012956;28;20184;-84
2023/02/18 04:56:29;;;;;;;7.77;0.67;;;6.20;99.90;;;;;;5012666;28;20267;-85
2023/02/18 04:58:55;;;;;;;10.87;1.07;;;6.20;99.90;;;;;;5012786;28;20620;-85
2023/02/18 05:01:20;;;;;;;5.83;0.80;;;6.20;99.90;;;;;;5012765;28;20173;-84
2023/02/18 05:03:46;;;;;;;2.50;0.30;;;6.20;99.90;;;;;;5012582;28;20175;-84
2023/02/18 05:06:11;;;;;;;5.97;0.93;;;6.20;99.90;;;;;;5012281;28;20528;-85
2023/02/18 05:08:37;;;;;;;2.20;0.40;;;6.30;99.90;;;;;;5012561;28;20178;-85
2023/02/18 05:11:07;;;;;;;6.43;0.60;;;6.30;99.90;;;;;;5016294;28;20168;-84
2023/02/18 05:13:32;;;;;;;7.70;0.63;;;6.30;99.90;;;;;;5016111;28;20163;-83
2023/02/18 05:15:58;;;;;;;1.80;0.50;;;6.30;99.90;;;;;;5015910;28;20537;-84
2023/02/18 05:18:23;;;;;;;3.13;0.73;;;6.30;99.90;;;;;;5016005;28;20175;-83
2023/02/18 05:20:49;;;;;;;3.67;0.90;;;6.30;99.90;;;;;;5015651;28;20172;-85
2023/02/18 05:23:14;;;;;;;5.53;0.83;;;6.30;99.90;;;;;;5016018;28;20659;-85
2023/02/18 05:25:40;;;;;;;5.73;1.37;;;6.30;99.90;;;;;;5015896;28;20173;-84
2023/02/18 05:28:05;;;;;;;7.67;0.73;;;6.30;99.90;;;;;;5014872;28;20168;-86
2023/02/18 05:30:31;;;;;;;3.73;0.57;;;6.30;99.90;;;;;;5014672;28;20173;-86
2023/02/18 05:32:56;;;;;;;4.67;0.30;;;6.20;99.90;;;;;;5014696;28;20172;-85
2023/02/18 05:35:22;;;;;;;10.20;0.70;;;6.30;99.90;;;;;;5015496;28;20775;-87
2023/02/18 05:37:47;;;;;;;5.17;0.47;;;6.20;99.90;;;;;;5014646;28;20255;-86
2023/02/18 05:40:15;;;;;;;1.97;0.50;;;6.30;99.90;;;;;;4975199;28;20196;-86
2023/02/18 05:42:41;;;;;;;2.40;0.77;;;6.30;99.90;;;;;;5015946;28;20169;-87
2023/02/18 05:45:07;;;;;;;2.90;0.57;;;6.20;99.90;;;;;;5014519;28;20821;-88
2023/02/18 05:47:32;;;;;;;7.40;0.70;;;6.20;99.90;;;;;;5015994;28;20219;-86
2023/02/18 05:50:01;;;;;;;10.30;0.93;;;6.20;99.90;;;;;;5015730;28;20419;-87
2023/02/18 05:52:26;;;;;;;6.80;0.70;;;6.20;99.90;;;;;;5014229;28;20189;-85
2023/02/18 05:54:52;;;;;;;9.03;0.80;;;6.20;99.90;;;;;;5015329;28;20409;-86
2023/02/18 05:57:17;;;;;;;3.60;0.60;;;6.10;99.90;;;;;;5014243;28;20208;-85
2023/02/18 05:59:43;;;;;;;5.70;0.70;;;6.10;99.90;;;;;;5015255;28;20172;-86
2023/02/18 06:02:08;;;;;;;7.70;0.83;;;6.10;99.90;;;;;;5015362;28;20514;-85
2023/02/18 06:04:34;;;;;;;3.47;0.90;;;6.10;99.90;;;;;;5015296;28;20794;-85
2023/02/18 06:06:59;;;;;;;8.07;0.70;;;6.10;99.90;;;;;;5014912;28;20172;-86
2023/02/18 06:09:25;;;;;;;10.10;0.50;;;6.10;99.90;;;;;;5015231;28;20590;-84
2023/02/18 06:11:50;;;;;;;4.67;0.50;;;6.10;99.90;;;;;;5015134;28;20188;-86
2023/02/18 06:14:16;;;;;;;3.47;0.30;;;6.20;99.90;;;;;;5015252;28;20190;-86
2023/02/18 06:16:41;;;;;;;3.30;0.43;;;6.00;99.90;;;;;;5015151;28;20212;-86
2023/02/18 06:19:07;;;;;;;3.10;0.30;;;6.20;99.90;;;;;;5015040;28;20211;-86
2023/02/18 06:21:33;;;;;;;7.70;0.67;;;6.00;99.90;;;;;;5013496;28;20716;-86
2023/02/18 06:24:01;;;;;;;3.90;0.40;;;6.20;99.90;;;;;;5015019;28;20182;-86
2023/02/18 06:26:26;;;;;;;4.60;0.40;;;6.00;99.90;;;;;;5015027;28;20650;-86
2023/02/18 06:28:52;;;;;;;3.97;0.33;;;6.10;99.90;;;;;;5014972;28;20411;-86
2023/02/18 06:31:18;;;;;;;5.50;0.10;;;6.00;99.90;;;;;;5013507;28;20693;-86
2023/02/18 06:33:46;;;;;;;5.23;0.40;;;6.10;99.90;;;;;;5009471;28;20555;-86
2023/02/18 06:36:13;;;;;;;3.30;0.77;;;6.00;99.90;;;;;;4994700;28;20259;-83
2023/02/18 06:38:40;;;;;;;6.40;0.50;;;6.00;99.90;;;;;;4995063;28;20416;-84
2023/02/18 06:41:06;;;;;;;2.27;0.30;;;5.90;99.90;;;;;;4995008;28;20745;-85
2023/02/18 06:43:32;;;;;;;6.73;0.97;;;5.90;99.90;;;;;;4972906;28;20442;-86
2023/02/18 06:45:57;;;;;;;2.50;0.40;;;5.90;99.90;;;;;;4998797;28;20482;-85
2023/02/18 06:48:23;;;;;;;2.93;0.40;;;6.00;99.90;;;;;;5014580;28;20188;-84
2023/02/18 06:50:54;;;;;;;6.03;1.10;;;5.90;99.90;;;;;;5014158;28;20204;-84
2023/02/18 06:53:20;;;;;;;5.50;0.20;;;5.90;99.90;;;;;;5014303;28;20208;-84
2023/02/18 06:55:46;;;;;;;6.40;0.83;;;5.90;99.90;;;;;;5014114;28;20518;-84
2023/02/18 06:58:13;;;;;;;6.60;0.83;;;6.00;99.90;;;;;;5014324;28;20201;-85
2023/02/18 07:00:39;;;;;;;4.83;0.47;;;6.00;99.90;;;;;;5014580;28;20420;-88
2023/02/18 07:03:05;;;;;;;3.53;0.40;;;6.00;99.90;;;;;;5014897;28;20414;-87
2023/02/18 07:05:34;;;;;;;4.10;0.43;;;6.00;99.90;;;;;;5013104;28;20793;-88
2023/02/18 07:08:00;;;;;;;9.23;1.37;;;6.00;99.90;;;;;;5013265;28;20431;-86
2023/02/18 07:10:31;;;;;;;3.30;0.43;;;6.00;99.90;;;;;;5013423;28;20420;-88
2023/02/18 07:12:59;;;;;;;5.23;0.30;;;6.00;99.90;;;;;;5013422;28;20603;-90
2023/02/18 07:15:26;;;;;;;6.03;1.20;;;6.10;99.90;;;;;;5013420;28;20472;-87
2023/02/18 07:17:52;;;;;;;4.30;0.50;;;6.10;99.90;;;;;;5009551;28;20477;-87
2023/02/18 07:20:19;;;;;;;7.07;0.80;;;6.10;99.90;;;;;;4997831;28;20428;-85
2023/02/18 07:22:45;;;;;;;2.33;0.40;;;6.10;99.90;;;;;;5013188;28;20428;-88
2023/02/18 07:25:11;;;;;;;7.13;1.27;;;6.10;99.90;;;;;;5014660;28;20424;-87
2023/02/18 07:27:36;;;;;;;10.97;0.77;;;6.10;99.90;;;;;;5013957;28;20530;-87
2023/02/18 07:30:03;;;;;;;8.27;2.07;;;6.10;99.90;;;;;;5014568;28;20176;-87
2023/02/18 07:32:28;;;;;;;3.53;0.67;;;6.10;99.90;;;;;;5012933;28;20180;-85
2023/02/18 07:34:54;;;;;;;5.27;0.50;;;6.20;99.90;;;;;;5013545;28;20507;-85
2023/02/18 07:37:23;;;;;;;8.00;1.10;;;6.10;99.90;;;;;;5013225;28;20212;-84
2023/02/18 07:39:48;;;;;;;5.27;0.20;;;6.10;99.90;;;;;;5013474;28;20170;-85
2023/02/18 07:42:17;;;;;;;3.90;0.67;;;6.20;99.90;;;;;;5012187;28;20470;-86
2023/02/18 07:44:42;;;;;;;7.83;1.47;;;6.10;99.90;;;;;;5011949;28;20225;-86
2023/02/18 07:47:13;;;;;;;5.13;0.63;;;6.20;99.90;;;;;;5011832;28;20416;-87
2023/02/18 07:49:38;;;;;;;6.37;0.70;;;6.30;99.90;;;;;;4973627;28;20191;-87
2023/02/18 07:52:04;;;;;;;4.87;0.60;;;6.40;99.90;;;;;;5011717;28;21000;-86
2023/02/18 07:54:29;;;;;;;7.93;1.03;;;6.30;99.90;;;;;;5013380;28;20173;-86
2023/02/18 07:56:55;;;;;;;8.00;0.77;;;6.30;99.90;;;;;;5013322;28;20216;-86
2023/02/18 07:59:20;;;;;;;10.43;0.97;;;6.30;99.90;;;;;;5012179;28;20219;-86
2023/02/18 08:01:46;;;;;;;6.70;1.80;;;6.30;99.90;;;;;;5013308;28;20188;-86
2023/02/18 08:04:12;;;;;;;4.17;0.90;;;6.30;99.90;;;;;;5012635;28;20194;-85
2023/02/18 08:06:40;;;;;;;3.27;0.50;;;6.30;99.90;;;;;;5011565;28;20170;-86
2023/02/18 08:09:07;;;;;;;8.57;0.97;;;6.30;99.90;;;;;;5011835;28;20531;-86
2023/02/18 08:11:33;;;;;;;4.13;1.13;;;6.30;99.90;;;;;;5011829;28;20479;-86
2023/02/18 08:13:59;;;;;;;6.17;1.33;;;6.40;99.90;;;;;;5013122;28;20424;-85
2023/02/18 08:16:24;;;;;;;5.13;1.07;;;6.30;99.90;;;;;;5013121;28;20470;-88
2023/02/18 08:18:51;;;;;;;4.40;0.90;;;6.30;99.90;;;;;;5012725;28;20264;-89
2023/02/18 08:21:19;;;;;;;5.67;0.90;;;6.30;99.90;;;;;;5012123;28;20255;-87
2023/02/18 08:23:45;;;;;;;3.40;1.10;;;6.30;99.90;;;;;;5011689;28;20498;-84
2023/02/18 08:26:11;;;;;;;4.63;1.07;;;6.40;99.90;;;;;;5012988;28;20802;-83
2023/02/18 08:28:36;;;;;;;7.30;0.43;;;6.40;99.90;;;;;;5012957;28;20420;-82
2023/02/18 08:31:03;;;;;;;6.93;1.23;;;6.40;99.90;;;;;;5012865;28;20668;-83
2023/02/18 08:33:29;;;;;;;6.17;1.20;;;6.50;99.90;;;;;;5012944;28;20177;-83
2023/02/18 08:35:55;;;;;;;3.93;1.20;;;6.40;99.90;;;;;;5012433;28;21057;-83
2023/02/18 08:38:22;;;;;;;6.73;1.37;;;6.40;99.90;;;;;;5012872;28;20408;-84
2023/02/18 08:40:48;;;;;;;2.60;0.80;;;6.40;99.90;;;;;;5011614;28;20425;-84
2023/02/18 08:43:15;;;;;;;9.97;1.00;;;6.30;99.90;;;;;;5012867;28;20863;-87
2023/02/18 08:45:41;;;;;;;5.07;1.30;;;6.30;99.90;;;;;;5016085;28;20601;-85
2023/02/18 08:48:09;;;;;;;8.87;2.20;;;6.40;99.90;;;;;;5016340;28;20459;-85
2023/02/18 08:50:34;;;;;;;4.40;1.70;;;6.40;99.90;;;;;;5016344;28;20753;-84
2023/02/18 08:53:02;;;;;;;7.20;1.40;;;6.30;99.90;;;;;;4978112;28;20437;-83
2023/02/18 08:55:29;;;;;;;5.57;1.60;;;6.30;99.90;;;;;;5015389;28;20263;-88
2023/02/18 08:57:54;;;;;;;6.40;1.17;;;6.40;99.90;;;;;;5015319;28;20432;-83
2023/02/18 09:00:20;;;;;;;3.30;0.70;;;6.40;99.90;;;;;;5014575;28;20449;-85
2023/02/18 09:02:46;;;;;;;7.83;1.23;;;6.40;99.90;;;;;;5015748;28;20569;-86
2023/02/18 09:05:12;;;;;;;6.33;1.03;;;6.40;99.90;;;;;;5014963;28;20172;-86
2023/02/18 09:07:38;;;;;;;1.70;0.50;;;6.40;99.90;;;;;;5014355;28;20429;-85
2023/02/18 09:10:05;;;;;;;7.83;1.67;;;6.40;99.90;;;;;;5016194;28;20478;-86
2023/02/18 09:12:31;;;;;;;5.93;1.40;;;6.40;99.90;;;;;;5016310;28;20471;-87
2023/02/18 09:14:56;;;;;;;10.13;1.80;;;6.30;99.90;;;;;;5016140;28;20420;-85
2023/02/18 09:17:22;;;;;;;6.23;0.90;;;6.40;99.90;;;;;;5015028;28;20594;-85
2023/02/18 09:19:47;;;;;;;3.27;0.87;;;6.40;99.90;;;;;;5014644;28;20198;-86
2023/02/18 09:22:13;;;;;;;7.63;1.80;;;6.40;99.90;;;;;;5015012;28;20180;-85
2023/02/18 09:24:40;;;;;;;3.17;1.03;;;6.40;99.90;;;;;;5016222;28;20183;-85
2023/02/18 09:27:06;;;;;;;2.60;0.83;;;6.40;99.90;;;;;;5016163;28;20417;-86
2023/02/18 09:29:38;;;;;;;2.47;0.27;;;6.30;99.90;;;;;;5015761;28;20451;-85
2023/02/18 09:32:04;;;;;;;4.57;0.93;;;6.30;99.90;;;;;;5015961;28;20639;-87
2023/02/18 09:34:30;;;;;;;10.50;2.13;;;6.40;99.90;;;;;;5015990;28;20404;-85
2023/02/18 09:36:58;;;;;;;6.83;0.70;;;6.40;99.90;;;;;;5014334;28;21010;-85
2023/02/18 09:39:23;;;;;;;6.03;1.83;;;6.40;99.90;;;;;;5015575;28;20176;-85
2023/02/18 09:41:52;;;;;;;6.17;1.83;;;6.40;99.90;;;;;;5015706;28;20785;-85
2023/02/18 09:44:26;;;;;;;9.27;1.77;;;6.40;99.90;;;;;;5014077;28;20181;-85
2023/02/18 09:46:59;;;;;;;5.00;1.27;;;6.40;99.90;;;;;;5016011;28;20475;-86
2023/02/18 09:49:32;;;;;;;6.57;1.50;;;6.40;99.90;;;;;;5018147;28;20777;-84
2023/02/18 09:52:10;;;;;;;3.50;0.87;;;6.50;99.90;;;;;;5015016;28;20420;-85
2023/02/18 09:54:35;;;;;;;3.50;1.20;;;6.50;99.90;;;;;;4975559;28;20435;-85
2023/02/18 09:57:03;;;;;;;3.73;1.10;;;6.50;99.90;;;;;;5014964;28;20476;-84
2023/02/18 09:59:30;;;;;;;5.77;1.30;;;6.60;99.90;;;;;;5015012;28;20166;-85
2023/02/18 10:01:56;;;;;;;8.03;1.60;;;6.60;99.90;;;;;;5014947;28;20417;-85
2023/02/18 10:04:31;;;;;;;3.27;0.67;;;6.50;99.90;;;;;;5015080;28;20401;-84
2023/02/18 10:06:57;;;;;;;2.57;1.30;;;6.60;99.90;;;;;;5014731;28;20807;-85
2023/02/18 10:09:34;;;;;;;3.00;1.50;;;6.60;99.90;;;;;;5014958;28;20486;-85
2023/02/18 10:12:12;;;;;;;3.90;2.23;;;6.50;99.90;;;;;;5015344;28;20426;-84
2023/02/18 10:14:37;;;;;;;3.13;1.03;;;6.60;99.90;;;;;;5014633;28;20443;-84
2023/02/18 10:17:04;;;;;;;1.53;1.00;;;6.60;99.90;;;;;;5014869;28;20906;-85
2023/02/18 10:19:34;;;;;;;3.20;1.80;;;6.60;99.90;;;;;;5014597;28;20734;-85
2023/02/18 10:22:05;;;;;;;5.80;1.10;;;6.60;99.90;;;;;;5014881;28;20435;-87
2023/02/18 10:24:40;;;;;;;4.90;0.90;;;6.60;99.90;;;;;;5014803;28;20495;-84
2023/02/18 10:27:07;;;;;;;3.93;0.80;;;6.60;99.90;;;;;;5013329;28;20473;-85
2023/02/18 10:29:33;;;;;;;3.17;0.60;;;6.70;99.90;;;;;;5013557;28;20451;-84
2023/02/18 10:32:13;;;;;;;3.40;0.53;;;6.80;99.90;;;;;;5014971;28;20420;-87
2023/02/18 10:34:40;;;;;;;4.23;1.30;;;6.80;99.90;;;;;;5013163;28;20769;-87
2023/02/18 10:37:52;;;;;;;7.87;6.67;;;6.80;99.90;;;;;;5014801;28;20484;-85
2023/02/18 10:40:42;;;;;;;7.10;2.23;;;6.90;99.90;;;;;;5012625;28;20419;-84
2023/02/18 10:43:19;;;;;;;9.47;7.40;;;6.90;99.90;;;;;;5012649;28;20462;-83
2023/02/18 10:46:08;;;;;;;40.40;27.60;;;7.00;99.90;;;;;;5013671;28;20500;-84
2023/02/18 10:49:15;;;;;;;7.40;6.13;;;7.00;99.90;;;;;;4994867;28;20408;-83
2023/02/18 10:51:50;;;;;;;7.87;3.17;;;7.00;99.90;;;;;;4955298;28;20432;-82
2023/02/18 10:54:15;;;;;;;4.60;2.70;;;7.00;99.90;;;;;;4973693;28;20459;-84
2023/02/18 10:56:46;;;;;;;6.13;3.10;;;7.10;99.90;;;;;;5003505;28;20477;-84
2023/02/18 10:59:24;;;;;;;4.90;1.77;;;7.20;99.90;;;;;;5012792;28;20642;-81
2023/02/18 11:02:14;;;;;;;4.13;1.63;;;7.20;99.90;;;;;;5013884;28;20503;-80
2023/02/18 11:04:42;;;;;;;2.90;1.87;;;7.30;99.90;;;;;;5012626;28;20424;-77
2023/02/18 11:07:20;;;;;;;2.23;1.37;;;7.40;99.90;;;;;;5012983;28;20420;-79
2023/02/18 11:09:53;;;;;;;1.63;0.70;;;7.50;99.90;;;;;;5013618;28;20423;-77
2023/02/18 11:12:21;;;;;;;2.03;1.27;;;7.50;99.90;;;;;;5013551;28;20442;-78
2023/02/18 11:14:50;;;;;;;1.90;1.20;;;7.40;99.90;;;;;;5013257;28;20525;-79
2023/02/18 11:17:28;;;;;;;2.10;0.73;;;7.40;99.90;;;;;;5012275;28;20480;-80
2023/02/18 11:20:00;;;;;;;2.77;1.20;;;7.40;99.90;;;;;;5013225;28;20420;-78
2023/02/18 11:22:35;;;;;;;2.90;1.10;;;7.50;99.90;;;;;;5013611;28;20442;-77
2023/02/18 11:25:03;;;;;;;3.23;1.70;;;7.70;99.90;;;;;;5012172;28;20422;-78
2023/02/18 11:27:43;;;;;;;1.60;1.00;;;7.90;99.90;;;;;;5013522;28;20469;-77
2023/02/18 11:30:23;;;;;;;2.83;1.67;;;8.10;99.90;;;;;;5013493;28;20407;-77
2023/02/18 11:32:52;;;;;;;4.00;1.10;;;8.20;99.90;;;;;;5013388;28;20754;-77
2023/02/18 11:35:23;;;;;;;2.20;1.50;;;8.30;99.90;;;;;;5012884;28;20809;-77
2023/02/18 11:37:50;;;;;;;2.60;1.30;;;8.40;99.90;;;;;;5013250;28;20927;-77
2023/02/18 11:40:31;;;;;;;1.00;0.20;;;8.60;99.90;;;;;;5013248;28;20415;-77
2023/02/18 11:43:18;;;;;;;0.87;0.20;;;9.20;99.90;;;;;;5013146;28;20520;-77
2023/02/18 11:45:44;;;;;;;0.90;0.20;;;9.40;99.90;;;;;;5013054;28;20468;-77
2023/02/18 11:48:18;;;;;;;0.87;0.27;;;9.60;99.90;;;;;;5013154;28;20504;-79
2023/02/18 11:50:52;;;;;;;0.40;0.20;;;9.70;99.90;;;;;;5012634;28;20411;-78
2023/02/18 11:53:28;;;;;;;0.50;0.20;;;9.80;99.90;;;;;;5011818;28;20430;-79
2023/02/18 11:55:57;;;;;;;0.37;0.20;;;9.80;99.90;;;;;;4977759;28;20560;-80
2023/02/18 11:58:23;;;;;;;0.50;0.20;;;;;;;;;;5013491;28;20434;-77
2023/02/18 12:00:52;;;;;;;0.53;0.20;;;9.90;99.90;;;;;;5013042;28;20426;-79
2023/02/18 12:03:21;;;;;;;2.00;0.20;;;;;;;;;;5012959;28;20418;-78
2023/02/18 12:05:47;;;;;;;0.50;0.20;;;10.00;99.90;;;;;;5012469;28;20534;-78
2023/02/18 12:08:22;;;;;;;0.80;0.20;;;10.00;99.90;;;;;;5012956;28;20431;-79
2023/02/18 12:10:54;;;;;;;0.40;0.20;;;10.00;99.90;;;;;;5012994;28;20419;-79
2023/02/18 12:13:41;;;;;;;0.73;0.20;;;9.90;99.90;;;;;;5011834;28;20964;-80
2023/02/18 12:16:13;;;;;;;0.50;0.20;;;9.80;99.90;;;;;;5013138;28;20458;-78
2023/02/18 12:18:51;;;;;;;0.50;0.20;;;;;;;;;;5015031;28;20751;-80
2023/02/18 12:21:49;;;;;;;0.40;0.20;;;10.00;99.90;;;;;;5016932;28;20501;-79
2023/02/18 12:24:32;;;;;;;0.83;0.20;;;10.00;99.90;;;;;;4994068;28;20851;-77
2023/02/18 12:27:11;;;;;;;0.90;0.30;;;10.10;99.90;;;;;;5017291;28;20438;-80
2023/02/18 12:29:57;;;;;;;3.03;0.30;;;10.00;99.90;;;;;;5017203;28;20511;-81
2023/02/18 12:32:54;;;;;;;0.70;0.20;;;10.00;99.90;;;;;;5017488;28;20413;-85
2023/02/18 12:35:46;;;;;;;3.70;0.20;;;9.90;99.90;;;;;;5016652;28;20550;-78
2023/02/18 12:38:47;;;;;;;1.03;0.20;;;9.80;99.90;;;;;;5016932;28;20418;-78
2023/02/18 12:41:37;;;;;;;1.07;0.37;;;9.80;99.90;;;;;;4956342;29;20455;-80
2023/02/18 12:44:18;;;;;;;0.87;0.20;;;9.80;99.90;;;;;;5013993;28;20434;-80
2023/02/18 12:47:11;;;;;;;1.13;0.20;;;9.70;99.90;;;;;;5016685;28;20413;-77
2023/02/18 12:50:00;;;;;;;1.10;0.20;;;9.70;99.90;;;;;;5014964;28;20437;-77
2023/02/18 12:52:31;;;;;;;1.23;0.27;;;9.70;99.90;;;;;;5016513;28;20497;-78
2023/02/18 12:55:24;;;;;;;2.40;0.63;;;9.70;99.90;;;;;;5015178;28;20477;-79
2023/02/18 12:58:04;;;;;;;2.80;0.67;;;9.70;99.90;;;;;;4987478;28;20492;-78
2023/02/18 13:01:00;;;;;;;3.90;0.53;;;9.70;99.90;;;;;;5014497;28;20782;-77
2023/02/18 13:03:57;;;;;;;1.90;0.50;;;9.70;99.90;;;;;;5014225;28;20525;-78
2023/02/18 13:06:59;;;;;;;2.57;0.50;;;9.70;99.90;;;;;;5015080;28;20469;-78
2023/02/18 13:10:09;;;;;;;3.93;1.00;;;9.60;99.90;;;;;;5015578;28;20947;-80
2023/02/18 13:12:42;;;;;;;2.50;1.30;;;9.60;99.90;;;;;;5015866;28;20426;-80
2023/02/18 13:15:37;;;;;;;4.00;1.30;;;9.50;99.90;;;;;;5015822;28;20781;-80